sensor_id;sensor_type;location;lat;lon;timestamp;temperature;humidity
12119;DHT22;6123;48.864;9.200;2023-04-06T00:01:47;2.50;99.90
12119;DHT22;6123;48.864;9.200;2023-04-06T00:04:13;2.30;99.90
12119;DHT22;6123;48.864;9.200;2023-04-06T00:06:38;2.10;99.90
12119;DHT22;6123;48.864;9.200;2023-04-06T00:09:04;2.10;99.90
12119;DHT22;6123;48.864;9.200;2023-04-06T00:11:32;2.10;99.90
12119;DHT22;6123;48.864;9.200;2023-04-06T00:14:00;2.10;99.90
12119;DHT22;6123;48.864;9.200;2023-04-06T00:16:28;2.20;99.90
12119;DHT22;6123;48.864;9.200;2023-04-06T00:18:54;2.00;99.90
12119;DHT22;6123;48.864;9.200;2023-04-06T00:21:19;1.90;99.90
12119;DHT22;6123;48.864;9.200;2023-04-06T00:23:47;1.80;99.90
12119;DHT22;6123;48.864;9.200;2023-04-06T00:26:13;1.70;99.90
12119;DHT22;6123;48.864;9.200;2023-04-06T00:28:39;1.70;99.90
12119;DHT22;6123;48.864;9.200;2023-04-06T00:31:07;1.90;99.90
12119;DHT22;6123;48.864;9.200;2023-04-06T00:33:32;1.80;99.90
12119;DHT22;6123;48.864;9.200;2023-04-06T00:35:58;1.60;99.90
12119;DHT22;6123;48.864;9.200;2023-04-06T00:38:24;1.60;99.90
12119;DHT22;6123;48.864;9.200;2023-04-06T00:40:49;1.60;99.90
12119;DHT22;6123;48.864;9.200;2023-04-06T00:43:15;1.60;99.90
12119;DHT22;6123;48.864;9.200;2023-04-06T00:45:41;1.90;99.90
12119;DHT22;6123;48.864;9.200;2023-04-06T00:48:09;1.90;99.90
12119;DHT22;6123;48.864;9.200;2023-04-06T00:50:35;1.50;99.90
12119;DHT22;6123;48.864;9.200;2023-04-06T00:53:01;1.40;99.90
12119;DHT22;6123;48.864;9.200;2023-04-06T00:55:29;1.10;99.90
12119;DHT22;6123;48.864;9.200;2023-04-06T00:57:57;1.20;99.90
12119;DHT22;6123;48.864;9.200;2023-04-06T01:00:23;1.40;99.90
12119;DHT22;6123;48.864;9.200;2023-04-06T01:02:49;1.60;99.90
12119;DHT22;6123;48.864;9.200;2023-04-06T01:05:18;1.50;99.90
12119;DHT22;6123;48.864;9.200;2023-04-06T01:07:43;1.40;99.90
12119;DHT22;6123;48.864;9.200;2023-04-06T01:10:09;1.40;99.90
12119;DHT22;6123;48.864;9.200;2023-04-06T01:12:35;1.70;99.90
12119;DHT22;6123;48.864;9.200;2023-04-06T01:15:03;1.60;99.90
12119;DHT22;6123;48.864;9.200;2023-04-06T01:17:31;1.50;99.90
12119;DHT22;6123;48.864;9.200;2023-04-06T01:19:57;1.10;99.90
12119;DHT22;6123;48.864;9.200;2023-04-06T01:22:25;1.00;99.90
12119;DHT22;6123;48.864;9.200;2023-04-06T01:24:50;1.00;99.90
12119;DHT22;6123;48.864;9.200;2023-04-06T01:27:16;1.00;99.90
12119;DHT22;6123;48.864;9.200;2023-04-06T01:29:44;1.00;99.90
12119;DHT22;6123;48.864;9.200;2023-04-06T01:32:12;1.00;99.90
12119;DHT22;6123;48.864;9.200;2023-04-06T01:34:40;1.00;99.90
12119;DHT22;6123;48.864;9.200;2023-04-06T01:37:06;1.00;99.90
12119;DHT22;6123;48.864;9.200;2023-04-06T01:39:32;1.00;99.90
12119;DHT22;6123;48.864;9.200;2023-04-06T01:42:00;1.00;99.90
12119;DHT22;6123;48.864;9.200;2023-04-06T01:44:25;0.90;99.90
12119;DHT22;6123;48.864;9.200;2023-04-06T01:46:54;0.90;99.90
12119;DHT22;6123;48.864;9.200;2023-04-06T01:49:22;1.00;99.90
12119;DHT22;6123;48.864;9.200;2023-04-06T01:51:48;1.10;99.90
12119;DHT22;6123;48.864;9.200;2023-04-06T01:54:13;1.10;99.90
12119;DHT22;6123;48.864;9.200;2023-04-06T01:56:39;1.00;99.90
12119;DHT22;6123;48.864;9.200;2023-04-06T01:59:05;0.90;99.90
12119;DHT22;6123;48.864;9.200;2023-04-06T02:01:31;1.00;99.90
12119;DHT22;6123;48.864;9.200;2023-04-06T02:03:57;1.00;99.90
12119;DHT22;6123;48.864;9.200;2023-04-06T02:06:22;1.00;99.90
12119;DHT22;6123;48.864;9.200;2023-04-06T02:08:48;0.80;99.90
12119;DHT22;6123;48.864;9.200;2023-04-06T02:11:13;0.70;99.90
12119;DHT22;6123;48.864;9.200;2023-04-06T02:13:39;0.70;99.90
12119;DHT22;6123;48.864;9.200;2023-04-06T02:16:05;0.60;99.90
12119;DHT22;6123;48.864;9.200;2023-04-06T02:18:31;1.00;99.90
12119;DHT22;6123;48.864;9.200;2023-04-06T02:20:59;1.00;99.90
12119;DHT22;6123;48.864;9.200;2023-04-06T02:23:25;0.70;99.90
12119;DHT22;6123;48.864;9.200;2023-04-06T02:25:54;0.60;99.90
12119;DHT22;6123;48.864;9.200;2023-04-06T02:28:20;0.60;99.90
12119;DHT22;6123;48.864;9.200;2023-04-06T02:30:45;0.70;99.90
12119;DHT22;6123;48.864;9.200;2023-04-06T02:33:12;0.60;99.90
12119;DHT22;6123;48.864;9.200;2023-04-06T02:35:37;0.70;99.90
12119;DHT22;6123;48.864;9.200;2023-04-06T02:38:03;0.70;99.90
12119;DHT22;6123;48.864;9.200;2023-04-06T02:40:28;0.70;99.90
12119;DHT22;6123;48.864;9.200;2023-04-06T02:42:54;0.70;99.90
12119;DHT22;6123;48.864;9.200;2023-04-06T02:45:20;0.70;99.90
12119;DHT22;6123;48.864;9.200;2023-04-06T02:47:46;0.80;99.90
12119;DHT22;6123;48.864;9.200;2023-04-06T02:50:14;0.70;99.90
12119;DHT22;6123;48.864;9.200;2023-04-06T02:52:40;0.50;99.90
12119;DHT22;6123;48.864;9.200;2023-04-06T02:55:06;0.60;99.90
12119;DHT22;6123;48.864;9.200;2023-04-06T02:57:33;0.70;99.90
12119;DHT22;6123;48.864;9.200;2023-04-06T02:59:58;0.60;99.90
12119;DHT22;6123;48.864;9.200;2023-04-06T03:02:24;0.50;99.90
12119;DHT22;6123;48.864;9.200;2023-04-06T03:04:50;0.50;99.90
12119;DHT22;6123;48.864;9.200;2023-04-06T03:07:16;0.40;99.90
12119;DHT22;6123;48.864;9.200;2023-04-06T03:09:41;0.50;99.90
12119;DHT22;6123;48.864;9.200;2023-04-06T03:12:07;0.50;99.90
12119;DHT22;6123;48.864;9.200;2023-04-06T03:14:35;0.40;99.90
12119;DHT22;6123;48.864;9.200;2023-04-06T03:17:01;0.50;99.90
12119;DHT22;6123;48.864;9.200;2023-04-06T03:19:27;0.30;99.90
12119;DHT22;6123;48.864;9.200;2023-04-06T03:21:55;0.30;99.90
12119;DHT22;6123;48.864;9.200;2023-04-06T03:24:21;0.30;99.90
12119;DHT22;6123;48.864;9.200;2023-04-06T03:26:47;0.40;99.90
12119;DHT22;6123;48.864;9.200;2023-04-06T03:29:17;0.40;99.90
12119;DHT22;6123;48.864;9.200;2023-04-06T03:31:42;0.20;99.90
12119;DHT22;6123;48.864;9.200;2023-04-06T03:34:10;0.10;99.90
12119;DHT22;6123;48.864;9.200;2023-04-06T03:36:36;0.20;99.90
12119;DHT22;6123;48.864;9.200;2023-04-06T03:39:04;0.10;99.90
12119;DHT22;6123;48.864;9.200;2023-04-06T03:41:30;0.20;99.90
12119;DHT22;6123;48.864;9.200;2023-04-06T03:43:58;0.20;99.90
12119;DHT22;6123;48.864;9.200;2023-04-06T03:46:23;0.10;99.90
12119;DHT22;6123;48.864;9.200;2023-04-06T03:48:49;0.00;99.90
12119;DHT22;6123;48.864;9.200;2023-04-06T03:51:18;0.00;99.90
12119;DHT22;6123;48.864;9.200;2023-04-06T03:53:43;0.30;99.90
12119;DHT22;6123;48.864;9.200;2023-04-06T03:56:12;0.40;99.90
12119;DHT22;6123;48.864;9.200;2023-04-06T03:58:38;0.30;99.90
12119;DHT22;6123;48.864;9.200;2023-04-06T04:01:06;0.10;99.90
12119;DHT22;6123;48.864;9.200;2023-04-06T04:03:32;-0.10;99.90
12119;DHT22;6123;48.864;9.200;2023-04-06T04:05:58;-0.10;99.90
12119;DHT22;6123;48.864;9.200;2023-04-06T04:08:24;-0.10;99.90
12119;DHT22;6123;48.864;9.200;2023-04-06T04:10:50;-0.20;99.90
12119;DHT22;6123;48.864;9.200;2023-04-06T04:13:15;-0.20;99.90
12119;DHT22;6123;48.864;9.200;2023-04-06T04:15:41;-0.30;99.90
12119;DHT22;6123;48.864;9.200;2023-04-06T04:18:09;-0.20;99.90
12119;DHT22;6123;48.864;9.200;2023-04-06T04:20:37;-0.20;99.90
12119;DHT22;6123;48.864;9.200;2023-04-06T04:23:02;-0.20;99.90
12119;DHT22;6123;48.864;9.200;2023-04-06T04:25:28;-0.20;99.90
12119;DHT22;6123;48.864;9.200;2023-04-06T04:27:56;-0.30;99.90
12119;DHT22;6123;48.864;9.200;2023-04-06T04:30:22;-0.40;99.90
12119;DHT22;6123;48.864;9.200;2023-04-06T04:32:48;-0.30;99.90
12119;DHT22;6123;48.864;9.200;2023-04-06T04:35:13;-0.30;99.90
12119;DHT22;6123;48.864;9.200;2023-04-06T04:37:41;-0.10;99.90
12119;DHT22;6123;48.864;9.200;2023-04-06T04:40:07;-0.20;99.90
12119;DHT22;6123;48.864;9.200;2023-04-06T04:42:35;-0.20;99.90
12119;DHT22;6123;48.864;9.200;2023-04-06T04:45:03;-0.20;99.90
12119;DHT22;6123;48.864;9.200;2023-04-06T04:47:29;-0.20;99.90
12119;DHT22;6123;48.864;9.200;2023-04-06T04:49:55;-0.10;99.90
12119;DHT22;6123;48.864;9.200;2023-04-06T04:52:23;-0.10;99.90
12119;DHT22;6123;48.864;9.200;2023-04-06T04:54:53;-0.10;99.90
12119;DHT22;6123;48.864;9.200;2023-04-06T04:57:19;0.00;99.90
12119;DHT22;6123;48.864;9.200;2023-04-06T04:59:46;0.00;99.90
12119;DHT22;6123;48.864;9.200;2023-04-06T05:02:13;-0.10;99.90
12119;DHT22;6123;48.864;9.200;2023-04-06T05:04:39;-0.20;99.90
12119;DHT22;6123;48.864;9.200;2023-04-06T05:07:06;-0.20;99.90
12119;DHT22;6123;48.864;9.200;2023-04-06T05:09:32;-0.10;99.90
12119;DHT22;6123;48.864;9.200;2023-04-06T05:12:01;-0.10;99.90
12119;DHT22;6123;48.864;9.200;2023-04-06T05:14:27;-0.10;99.90
12119;DHT22;6123;48.864;9.200;2023-04-06T05:16:55;-0.20;99.90
12119;DHT22;6123;48.864;9.200;2023-04-06T05:19:23;0.10;99.90
12119;DHT22;6123;48.864;9.200;2023-04-06T05:21:49;0.30;99.90
12119;DHT22;6123;48.864;9.200;2023-04-06T05:24:17;0.20;99.90
12119;DHT22;6123;48.864;9.200;2023-04-06T05:26:45;0.00;99.90
12119;DHT22;6123;48.864;9.200;2023-04-06T05:29:11;0.10;99.90
12119;DHT22;6123;48.864;9.200;2023-04-06T05:31:40;0.10;99.90
12119;DHT22;6123;48.864;9.200;2023-04-06T05:34:05;0.20;99.90
12119;DHT22;6123;48.864;9.200;2023-04-06T05:36:31;0.10;99.90
12119;DHT22;6123;48.864;9.200;2023-04-06T05:38:58;0.00;99.90
12119;DHT22;6123;48.864;9.200;2023-04-06T05:41:28;0.00;99.90
12119;DHT22;6123;48.864;9.200;2023-04-06T05:43:53;0.20;99.90
12119;DHT22;6123;48.864;9.200;2023-04-06T05:46:19;0.30;99.90
12119;DHT22;6123;48.864;9.200;2023-04-06T05:48:45;0.40;99.90
12119;DHT22;6123;48.864;9.200;2023-04-06T05:51:11;0.40;99.90
12119;DHT22;6123;48.864;9.200;2023-04-06T05:53:39;0.50;99.90
12119;DHT22;6123;48.864;9.200;2023-04-06T05:56:05;0.50;99.90
12119;DHT22;6123;48.864;9.200;2023-04-06T05:58:31;0.60;99.90
12119;DHT22;6123;48.864;9.200;2023-04-06T06:01:00;0.70;99.90
12119;DHT22;6123;48.864;9.200;2023-04-06T06:03:26;0.90;99.90
12119;DHT22;6123;48.864;9.200;2023-04-06T06:05:52;1.00;99.90
12119;DHT22;6123;48.864;9.200;2023-04-06T06:08:17;1.10;99.90
12119;DHT22;6123;48.864;9.200;2023-04-06T06:10:43;1.20;99.90
12119;DHT22;6123;48.864;9.200;2023-04-06T06:13:11;1.20;99.90
12119;DHT22;6123;48.864;9.200;2023-04-06T06:15:36;1.30;99.90
12119;DHT22;6123;48.864;9.200;2023-04-06T06:18:04;1.50;99.90
12119;DHT22;6123;48.864;9.200;2023-04-06T06:20:30;1.60;99.90
12119;DHT22;6123;48.864;9.200;2023-04-06T06:22:56;1.70;99.90
12119;DHT22;6123;48.864;9.200;2023-04-06T06:25:21;1.70;99.90
12119;DHT22;6123;48.864;9.200;2023-04-06T06:27:49;1.60;99.90
12119;DHT22;6123;48.864;9.200;2023-04-06T06:30:15;1.70;99.90
12119;DHT22;6123;48.864;9.200;2023-04-06T06:32:41;1.90;99.90
12119;DHT22;6123;48.864;9.200;2023-04-06T06:35:07;2.10;99.90
12119;DHT22;6123;48.864;9.200;2023-04-06T06:37:32;2.30;99.90
12119;DHT22;6123;48.864;9.200;2023-04-06T06:39:58;2.40;99.90
12119;DHT22;6123;48.864;9.200;2023-04-06T06:42:24;2.50;99.90
12119;DHT22;6123;48.864;9.200;2023-04-06T06:44:52;2.70;99.90
12119;DHT22;6123;48.864;9.200;2023-04-06T06:47:22;2.80;99.90
12119;DHT22;6123;48.864;9.200;2023-04-06T06:49:47;2.90;99.90
12119;DHT22;6123;48.864;9.200;2023-04-06T06:52:15;3.00;99.90
12119;DHT22;6123;48.864;9.200;2023-04-06T06:54:41;3.10;99.90
12119;DHT22;6123;48.864;9.200;2023-04-06T06:57:09;3.20;99.90
12119;DHT22;6123;48.864;9.200;2023-04-06T06:59:35;3.40;99.90
12119;DHT22;6123;48.864;9.200;2023-04-06T07:02:01;3.60;99.90
12119;DHT22;6123;48.864;9.200;2023-04-06T07:04:29;3.60;99.90
12119;DHT22;6123;48.864;9.200;2023-04-06T07:06:54;3.70;99.90
12119;DHT22;6123;48.864;9.200;2023-04-06T07:09:22;3.90;99.90
12119;DHT22;6123;48.864;9.200;2023-04-06T07:11:51;4.00;99.90
12119;DHT22;6123;48.864;9.200;2023-04-06T07:14:17;4.10;99.90
12119;DHT22;6123;48.864;9.200;2023-04-06T07:16:45;4.20;99.90
12119;DHT22;6123;48.864;9.200;2023-04-06T07:19:12;4.50;99.90
12119;DHT22;6123;48.864;9.200;2023-04-06T07:21:37;4.60;99.90
12119;DHT22;6123;48.864;9.200;2023-04-06T07:24:03;4.90;99.90
12119;DHT22;6123;48.864;9.200;2023-04-06T07:26:31;5.10;99.90
12119;DHT22;6123;48.864;9.200;2023-04-06T07:28:57;5.10;99.90
12119;DHT22;6123;48.864;9.200;2023-04-06T07:31:22;5.40;99.90
12119;DHT22;6123;48.864;9.200;2023-04-06T07:33:50;5.30;99.90
12119;DHT22;6123;48.864;9.200;2023-04-06T07:36:16;5.40;99.90
12119;DHT22;6123;48.864;9.200;2023-04-06T07:38:42;5.60;99.90
12119;DHT22;6123;48.864;9.200;2023-04-06T07:41:07;5.70;99.90
12119;DHT22;6123;48.864;9.200;2023-04-06T07:43:33;5.70;99.90
12119;DHT22;6123;48.864;9.200;2023-04-06T07:46:06;6.00;99.90
12119;DHT22;6123;48.864;9.200;2023-04-06T07:48:34;6.10;99.90
12119;DHT22;6123;48.864;9.200;2023-04-06T07:51:04;6.00;99.90
12119;DHT22;6123;48.864;9.200;2023-04-06T07:53:30;6.40;99.90
12119;DHT22;6123;48.864;9.200;2023-04-06T07:55:57;6.40;99.90
12119;DHT22;6123;48.864;9.200;2023-04-06T07:58:23;6.50;99.90
12119;DHT22;6123;48.864;9.200;2023-04-06T08:00:51;6.70;99.90
12119;DHT22;6123;48.864;9.200;2023-04-06T08:03:17;6.90;99.90
12119;DHT22;6123;48.864;9.200;2023-04-06T08:05:43;7.00;99.90
12119;DHT22;6123;48.864;9.200;2023-04-06T08:08:08;7.00;99.90
12119;DHT22;6123;48.864;9.200;2023-04-06T08:10:37;6.90;99.90
12119;DHT22;6123;48.864;9.200;2023-04-06T08:13:02;7.20;99.90
12119;DHT22;6123;48.864;9.200;2023-04-06T08:15:28;7.40;99.90
12119;DHT22;6123;48.864;9.200;2023-04-06T08:17:53;7.60;99.90
12119;DHT22;6123;48.864;9.200;2023-04-06T08:20:22;7.80;99.90
12119;DHT22;6123;48.864;9.200;2023-04-06T08:22:50;8.00;99.90
12119;DHT22;6123;48.864;9.200;2023-04-06T08:25:16;8.20;99.90
12119;DHT22;6123;48.864;9.200;2023-04-06T08:27:41;8.10;99.90
12119;DHT22;6123;48.864;9.200;2023-04-06T08:30:07;8.30;99.90
12119;DHT22;6123;48.864;9.200;2023-04-06T08:32:33;8.50;99.90
12119;DHT22;6123;48.864;9.200;2023-04-06T08:34:58;8.40;99.90
12119;DHT22;6123;48.864;9.200;2023-04-06T08:37:24;8.60;99.90
12119;DHT22;6123;48.864;9.200;2023-04-06T08:39:50;8.70;99.90
12119;DHT22;6123;48.864;9.200;2023-04-06T08:42:20;8.80;99.90
12119;DHT22;6123;48.864;9.200;2023-04-06T08:44:47;9.00;99.90
12119;DHT22;6123;48.864;9.200;2023-04-06T08:47:13;9.10;99.90
12119;DHT22;6123;48.864;9.200;2023-04-06T08:49:40;9.20;99.90
12119;DHT22;6123;48.864;9.200;2023-04-06T08:52:07;9.30;99.90
12119;DHT22;6123;48.864;9.200;2023-04-06T08:54:34;9.40;99.90
12119;DHT22;6123;48.864;9.200;2023-04-06T08:57:04;9.50;99.90
12119;DHT22;6123;48.864;9.200;2023-04-06T08:59:31;9.70;99.90
12119;DHT22;6123;48.864;9.200;2023-04-06T09:01:57;9.70;99.90
12119;DHT22;6123;48.864;9.200;2023-04-06T09:04:24;9.70;99.40
12119;DHT22;6123;48.864;9.200;2023-04-06T09:06:52;9.80;99.90
12119;DHT22;6123;48.864;9.200;2023-04-06T09:09:18;9.80;99.90
12119;DHT22;6123;48.864;9.200;2023-04-06T09:11:49;10.00;99.90
12119;DHT22;6123;48.864;9.200;2023-04-06T09:14:37;10.20;99.90
12119;DHT22;6123;48.864;9.200;2023-04-06T09:17:03;10.30;98.50
12119;DHT22;6123;48.864;9.200;2023-04-06T09:19:29;10.50;97.20
12119;DHT22;6123;48.864;9.200;2023-04-06T09:22:02;10.60;99.00
12119;DHT22;6123;48.864;9.200;2023-04-06T09:24:39;10.70;95.60
12119;DHT22;6123;48.864;9.200;2023-04-06T09:27:07;10.70;93.90
12119;DHT22;6123;48.864;9.200;2023-04-06T09:29:33;10.80;94.40
12119;DHT22;6123;48.864;9.200;2023-04-06T09:32:06;10.90;92.70
12119;DHT22;6123;48.864;9.200;2023-04-06T09:34:32;11.00;94.00
12119;DHT22;6123;48.864;9.200;2023-04-06T09:36:58;11.00;91.80
12119;DHT22;6123;48.864;9.200;2023-04-06T09:39:24;10.60;92.80
12119;DHT22;6123;48.864;9.200;2023-04-06T09:41:52;11.10;93.10
12119;DHT22;6123;48.864;9.200;2023-04-06T09:44:18;11.20;90.20
12119;DHT22;6123;48.864;9.200;2023-04-06T09:46:46;11.50;88.10
12119;DHT22;6123;48.864;9.200;2023-04-06T09:49:12;11.60;86.00
12119;DHT22;6123;48.864;9.200;2023-04-06T09:51:48;11.40;86.60
12119;DHT22;6123;48.864;9.200;2023-04-06T09:54:21;11.10;86.10
12119;DHT22;6123;48.864;9.200;2023-04-06T09:56:51;11.10;85.90
12119;DHT22;6123;48.864;9.200;2023-04-06T10:02:48;11.80;86.30
12119;DHT22;6123;48.864;9.200;2023-04-06T10:08:04;12.40;82.50
12119;DHT22;6123;48.864;9.200;2023-04-06T10:10:31;12.60;81.90
12119;DHT22;6123;48.864;9.200;2023-04-06T10:12:59;12.70;79.40
12119;DHT22;6123;48.864;9.200;2023-04-06T10:15:27;12.80;77.70
12119;DHT22;6123;48.864;9.200;2023-04-06T10:17:52;12.30;71.30
12119;DHT22;6123;48.864;9.200;2023-04-06T10:25:55;11.80;74.50
12119;DHT22;6123;48.864;9.200;2023-04-06T10:28:21;12.20;75.00
12119;DHT22;6123;48.864;9.200;2023-04-06T10:30:49;12.80;74.70
12119;DHT22;6123;48.864;9.200;2023-04-06T10:33:24;12.90;71.90
12119;DHT22;6123;48.864;9.200;2023-04-06T10:35:53;12.60;68.90
12119;DHT22;6123;48.864;9.200;2023-04-06T10:38:20;12.60;68.70
12119;DHT22;6123;48.864;9.200;2023-04-06T10:40:49;12.70;69.30
12119;DHT22;6123;48.864;9.200;2023-04-06T10:43:19;13.10;68.40
12119;DHT22;6123;48.864;9.200;2023-04-06T10:45:55;13.10;68.80
12119;DHT22;6123;48.864;9.200;2023-04-06T10:48:23;13.50;66.60
12119;DHT22;6123;48.864;9.200;2023-04-06T10:50:54;13.50;65.00
12119;DHT22;6123;48.864;9.200;2023-04-06T10:53:27;13.50;63.50
12119;DHT22;6123;48.864;9.200;2023-04-06T10:55:56;13.30;63.80
12119;DHT22;6123;48.864;9.200;2023-04-06T10:58:26;13.70;63.10
12119;DHT22;6123;48.864;9.200;2023-04-06T11:00:53;13.50;62.10
12119;DHT22;6123;48.864;9.200;2023-04-06T11:03:20;13.50;61.30
12119;DHT22;6123;48.864;9.200;2023-04-06T11:05:49;13.70;60.30
12119;DHT22;6123;48.864;9.200;2023-04-06T11:08:29;13.00;61.70
12119;DHT22;6123;48.864;9.200;2023-04-06T11:11:15;13.40;64.60
12119;DHT22;6123;48.864;9.200;2023-04-06T11:16:16;12.90;59.20
12119;DHT22;6123;48.864;9.200;2023-04-06T11:18:57;12.20;63.50
12119;DHT22;6123;48.864;9.200;2023-04-06T11:24:24;12.90;61.40
12119;DHT22;6123;48.864;9.200;2023-04-06T11:26:57;12.70;62.00
12119;DHT22;6123;48.864;9.200;2023-04-06T11:29:25;12.10;62.50
12119;DHT22;6123;48.864;9.200;2023-04-06T11:31:53;13.50;61.50
12119;DHT22;6123;48.864;9.200;2023-04-06T11:34:21;14.30;59.50
12119;DHT22;6123;48.864;9.200;2023-04-06T11:36:48;14.50;57.80
12119;DHT22;6123;48.864;9.200;2023-04-06T11:39:20;14.20;56.50
12119;DHT22;6123;48.864;9.200;2023-04-06T11:42:02;14.60;56.70
12119;DHT22;6123;48.864;9.200;2023-04-06T11:44:38;14.90;53.40
12119;DHT22;6123;48.864;9.200;2023-04-06T11:47:09;15.00;53.60
12119;DHT22;6123;48.864;9.200;2023-04-06T11:49:42;15.20;53.10
12119;DHT22;6123;48.864;9.200;2023-04-06T11:54:41;14.80;50.40
12119;DHT22;6123;48.864;9.200;2023-04-06T11:57:09;14.90;53.40
12119;DHT22;6123;48.864;9.200;2023-04-06T11:59:35;15.20;51.50
12119;DHT22;6123;48.864;9.200;2023-04-06T12:02:04;14.90;50.60
12119;DHT22;6123;48.864;9.200;2023-04-06T12:04:31;15.10;52.40
12119;DHT22;6123;48.864;9.200;2023-04-06T12:07:01;16.00;50.70
12119;DHT22;6123;48.864;9.200;2023-04-06T12:09:27;16.30;50.20
12119;DHT22;6123;48.864;9.200;2023-04-06T12:11:53;16.20;51.90
12119;DHT22;6123;48.864;9.200;2023-04-06T12:14:18;16.80;52.00
12119;DHT22;6123;48.864;9.200;2023-04-06T12:16:47;16.90;50.70
12119;DHT22;6123;48.864;9.200;2023-04-06T12:19:12;16.80;48.90
12119;DHT22;6123;48.864;9.200;2023-04-06T12:21:40;16.60;49.10
12119;DHT22;6123;48.864;9.200;2023-04-06T12:24:06;16.70;47.50
12119;DHT22;6123;48.864;9.200;2023-04-06T12:26:32;16.90;47.80
12119;DHT22;6123;48.864;9.200;2023-04-06T12:29:01;16.90;48.80
12119;DHT22;6123;48.864;9.200;2023-04-06T12:31:32;16.80;47.60
12119;DHT22;6123;48.864;9.200;2023-04-06T12:34:02;17.00;46.90
12119;DHT22;6123;48.864;9.200;2023-04-06T12:36:28;17.20;46.20
12119;DHT22;6123;48.864;9.200;2023-04-06T12:38:54;17.10;46.60
12119;DHT22;6123;48.864;9.200;2023-04-06T12:41:20;16.80;47.70
12119;DHT22;6123;48.864;9.200;2023-04-06T12:43:49;17.30;46.90
12119;DHT22;6123;48.864;9.200;2023-04-06T12:46:20;17.60;46.10
12119;DHT22;6123;48.864;9.200;2023-04-06T12:48:48;17.10;45.50
12119;DHT22;6123;48.864;9.200;2023-04-06T12:51:14;17.00;46.60
12119;DHT22;6123;48.864;9.200;2023-04-06T12:53:42;17.50;45.60
12119;DHT22;6123;48.864;9.200;2023-04-06T12:56:16;17.20;45.50
12119;DHT22;6123;48.864;9.200;2023-04-06T12:58:43;17.60;44.20
12119;DHT22;6123;48.864;9.200;2023-04-06T13:01:10;18.00;45.20
12119;DHT22;6123;48.864;9.200;2023-04-06T13:03:38;18.30;45.70
12119;DHT22;6123;48.864;9.200;2023-04-06T13:06:04;18.60;43.70
12119;DHT22;6123;48.864;9.200;2023-04-06T13:08:30;18.40;42.60
12119;DHT22;6123;48.864;9.200;2023-04-06T13:10:56;18.50;43.30
12119;DHT22;6123;48.864;9.200;2023-04-06T13:13:29;18.50;42.30
12119;DHT22;6123;48.864;9.200;2023-04-06T13:16:02;18.00;42.30
12119;DHT22;6123;48.864;9.200;2023-04-06T13:18:31;17.30;41.60
12119;DHT22;6123;48.864;9.200;2023-04-06T13:20:58;17.30;41.70
12119;DHT22;6123;48.864;9.200;2023-04-06T13:23:27;17.20;41.30
12119;DHT22;6123;48.864;9.200;2023-04-06T13:26:04;17.60;42.30
12119;DHT22;6123;48.864;9.200;2023-04-06T13:28:30;17.40;41.80
12119;DHT22;6123;48.864;9.200;2023-04-06T13:30:58;18.00;42.30
12119;DHT22;6123;48.864;9.200;2023-04-06T13:33:24;18.10;42.30
12119;DHT22;6123;48.864;9.200;2023-04-06T13:35:49;17.80;39.90
12119;DHT22;6123;48.864;9.200;2023-04-06T13:38:15;17.60;40.20
12119;DHT22;6123;48.864;9.200;2023-04-06T13:40:44;17.40;40.30
12119;DHT22;6123;48.864;9.200;2023-04-06T13:43:09;17.20;40.10
12119;DHT22;6123;48.864;9.200;2023-04-06T13:45:36;17.30;40.90
12119;DHT22;6123;48.864;9.200;2023-04-06T13:48:02;17.60;40.50
12119;DHT22;6123;48.864;9.200;2023-04-06T13:50:28;17.40;39.50
12119;DHT22;6123;48.864;9.200;2023-04-06T13:52:54;17.00;38.90
12119;DHT22;6123;48.864;9.200;2023-04-06T13:55:20;17.00;40.50
12119;DHT22;6123;48.864;9.200;2023-04-06T13:57:46;16.60;40.80
12119;DHT22;6123;48.864;9.200;2023-04-06T14:00:15;16.40;40.10
12119;DHT22;6123;48.864;9.200;2023-04-06T14:02:40;16.50;41.00
12119;DHT22;6123;48.864;9.200;2023-04-06T14:05:09;16.60;42.10
12119;DHT22;6123;48.864;9.200;2023-04-06T14:07:37;16.20;40.30
12119;DHT22;6123;48.864;9.200;2023-04-06T14:10:03;16.30;41.10
12119;DHT22;6123;48.864;9.200;2023-04-06T14:12:29;16.50;41.70
12119;DHT22;6123;48.864;9.200;2023-04-06T14:14:58;16.60;40.60
12119;DHT22;6123;48.864;9.200;2023-04-06T14:17:23;16.50;40.60
12119;DHT22;6123;48.864;9.200;2023-04-06T14:19:51;16.70;42.10
12119;DHT22;6123;48.864;9.200;2023-04-06T14:22:18;16.90;41.40
12119;DHT22;6123;48.864;9.200;2023-04-06T14:24:43;16.70;40.60
12119;DHT22;6123;48.864;9.200;2023-04-06T14:27:12;17.40;41.40
12119;DHT22;6123;48.864;9.200;2023-04-06T14:29:38;17.40;40.30
12119;DHT22;6123;48.864;9.200;2023-04-06T14:32:03;17.30;39.60
12119;DHT22;6123;48.864;9.200;2023-04-06T14:34:29;17.60;41.20
12119;DHT22;6123;48.864;9.200;2023-04-06T14:36:57;17.70;40.00
12119;DHT22;6123;48.864;9.200;2023-04-06T14:39:22;17.90;39.50
12119;DHT22;6123;48.864;9.200;2023-04-06T14:41:48;18.00;39.00
12119;DHT22;6123;48.864;9.200;2023-04-06T14:44:17;18.30;39.50
12119;DHT22;6123;48.864;9.200;2023-04-06T14:46:42;18.00;39.00
12119;DHT22;6123;48.864;9.200;2023-04-06T14:49:10;17.70;38.50
12119;DHT22;6123;48.864;9.200;2023-04-06T14:51:36;17.50;38.70
12119;DHT22;6123;48.864;9.200;2023-04-06T14:54:02;17.50;39.30
12119;DHT22;6123;48.864;9.200;2023-04-06T14:56:28;17.00;39.50
12119;DHT22;6123;48.864;9.200;2023-04-06T14:58:58;17.40;40.90
12119;DHT22;6123;48.864;9.200;2023-04-06T15:01:24;17.50;40.00
12119;DHT22;6123;48.864;9.200;2023-04-06T15:03:49;17.20;39.80
12119;DHT22;6123;48.864;9.200;2023-04-06T15:06:16;17.50;39.50
12119;DHT22;6123;48.864;9.200;2023-04-06T15:08:43;17.30;39.40
12119;DHT22;6123;48.864;9.200;2023-04-06T15:11:09;17.20;39.80
12119;DHT22;6123;48.864;9.200;2023-04-06T15:13:38;17.10;39.70
12119;DHT22;6123;48.864;9.200;2023-04-06T15:16:05;17.00;39.80
12119;DHT22;6123;48.864;9.200;2023-04-06T15:18:33;17.10;41.20
12119;DHT22;6123;48.864;9.200;2023-04-06T15:20:59;17.10;40.30
12119;DHT22;6123;48.864;9.200;2023-04-06T15:23:24;17.20;40.20
12119;DHT22;6123;48.864;9.200;2023-04-06T15:25:51;17.00;41.80
12119;DHT22;6123;48.864;9.200;2023-04-06T15:28:16;16.50;40.60
12119;DHT22;6123;48.864;9.200;2023-04-06T15:30:42;15.40;41.40
12119;DHT22;6123;48.864;9.200;2023-04-06T15:33:10;15.00;43.20
12119;DHT22;6123;48.864;9.200;2023-04-06T15:35:36;15.10;42.90
12119;DHT22;6123;48.864;9.200;2023-04-06T15:38:05;15.60;42.90
12119;DHT22;6123;48.864;9.200;2023-04-06T15:40:32;15.90;42.40
12119;DHT22;6123;48.864;9.200;2023-04-06T15:42:57;15.80;42.60
12119;DHT22;6123;48.864;9.200;2023-04-06T15:45:23;15.90;43.20
12119;DHT22;6123;48.864;9.200;2023-04-06T15:47:48;15.80;43.30
12119;DHT22;6123;48.864;9.200;2023-04-06T15:50:14;15.60;43.30
12119;DHT22;6123;48.864;9.200;2023-04-06T15:52:40;15.50;44.50
12119;DHT22;6123;48.864;9.200;2023-04-06T15:55:07;15.50;43.20
12119;DHT22;6123;48.864;9.200;2023-04-06T15:57:33;15.50;42.90
12119;DHT22;6123;48.864;9.200;2023-04-06T15:59:59;15.50;43.20
12119;DHT22;6123;48.864;9.200;2023-04-06T16:02:26;15.40;43.70
12119;DHT22;6123;48.864;9.200;2023-04-06T16:04:58;15.40;42.80
12119;DHT22;6123;48.864;9.200;2023-04-06T16:07:27;15.40;44.40
12119;DHT22;6123;48.864;9.200;2023-04-06T16:09:56;15.40;43.60
12119;DHT22;6123;48.864;9.200;2023-04-06T16:12:25;15.20;44.30
12119;DHT22;6123;48.864;9.200;2023-04-06T16:14:50;15.30;45.50